sensor_id;sensor_type;location;lat;lon;timestamp;temperature;humidity
22765;DHT22;11549;50.852;3.816;2022-10-28T00:01:22;18.50;99.90
22765;DHT22;11549;50.852;3.816;2022-10-28T00:03:52;18.50;99.90
22765;DHT22;11549;50.852;3.816;2022-10-28T00:06:22;18.40;99.90
22765;DHT22;11549;50.852;3.816;2022-10-28T00:08:51;18.40;99.90
22765;DHT22;11549;50.852;3.816;2022-10-28T00:11:23;18.30;99.90
22765;DHT22;11549;50.852;3.816;2022-10-28T00:13:53;18.30;99.90
22765;DHT22;11549;50.852;3.816;2022-10-28T00:16:23;18.30;99.90
22765;DHT22;11549;50.852;3.816;2022-10-28T00:18:52;18.40;99.90
22765;DHT22;11549;50.852;3.816;2022-10-28T00:21:22;18.40;99.90
22765;DHT22;11549;50.852;3.816;2022-10-28T00:23:52;18.40;99.90
22765;DHT22;11549;50.852;3.816;2022-10-28T00:26:23;18.40;99.90
22765;DHT22;11549;50.852;3.816;2022-10-28T00:28:53;18.40;99.90
22765;DHT22;11549;50.852;3.816;2022-10-28T00:31:23;18.40;99.90
22765;DHT22;11549;50.852;3.816;2022-10-28T00:33:52;18.40;99.90
22765;DHT22;11549;50.852;3.816;2022-10-28T00:36:21;18.40;99.90
22765;DHT22;11549;50.852;3.816;2022-10-28T00:38:51;18.20;99.90
22765;DHT22;11549;50.852;3.816;2022-10-28T00:41:24;18.40;99.90
22765;DHT22;11549;50.852;3.816;2022-10-28T00:43:54;18.30;99.90
22765;DHT22;11549;50.852;3.816;2022-10-28T00:46:27;18.30;99.90
22765;DHT22;11549;50.852;3.816;2022-10-28T00:49:00;18.30;99.90
22765;DHT22;11549;50.852;3.816;2022-10-28T00:51:30;18.30;99.90
22765;DHT22;11549;50.852;3.816;2022-10-28T00:54:01;18.20;99.90
22765;DHT22;11549;50.852;3.816;2022-10-28T00:56:35;18.30;99.90
22765;DHT22;11549;50.852;3.816;2022-10-28T00:59:05;18.20;99.90
22765;DHT22;11549;50.852;3.816;2022-10-28T01:01:34;18.20;99.90
22765;DHT22;11549;50.852;3.816;2022-10-28T01:04:03;18.10;99.90
22765;DHT22;11549;50.852;3.816;2022-10-28T01:06:31;18.10;99.90
22765;DHT22;11549;50.852;3.816;2022-10-28T01:09:00;18.10;99.90
22765;DHT22;11549;50.852;3.816;2022-10-28T01:11:44;18.10;99.90
22765;DHT22;11549;50.852;3.816;2022-10-28T01:14:22;18.10;99.90
22765;DHT22;11549;50.852;3.816;2022-10-28T01:17:06;18.10;99.90
22765;DHT22;11549;50.852;3.816;2022-10-28T01:20:08;18.00;99.90
22765;DHT22;11549;50.852;3.816;2022-10-28T01:22:48;18.10;99.90
22765;DHT22;11549;50.852;3.816;2022-10-28T01:25:36;18.20;99.90
22765;DHT22;11549;50.852;3.816;2022-10-28T01:31:28;18.00;99.90
22765;DHT22;11549;50.852;3.816;2022-10-28T01:34:07;18.00;99.90
22765;DHT22;11549;50.852;3.816;2022-10-28T01:36:41;18.00;99.90
22765;DHT22;11549;50.852;3.816;2022-10-28T01:39:20;17.90;99.90
22765;DHT22;11549;50.852;3.816;2022-10-28T01:41:55;17.90;99.90
22765;DHT22;11549;50.852;3.816;2022-10-28T01:44:29;17.90;99.90
22765;DHT22;11549;50.852;3.816;2022-10-28T01:47:04;17.80;99.90
22765;DHT22;11549;50.852;3.816;2022-10-28T01:49:39;17.90;99.90
22765;DHT22;11549;50.852;3.816;2022-10-28T01:52:12;18.00;99.90
22765;DHT22;11549;50.852;3.816;2022-10-28T01:54:43;17.90;99.90
22765;DHT22;11549;50.852;3.816;2022-10-28T01:57:14;17.90;99.90
22765;DHT22;11549;50.852;3.816;2022-10-28T01:59:44;17.90;99.90
22765;DHT22;11549;50.852;3.816;2022-10-28T02:02:16;17.80;99.90
22765;DHT22;11549;50.852;3.816;2022-10-28T02:04:45;17.90;99.90
22765;DHT22;11549;50.852;3.816;2022-10-28T02:07:14;17.90;99.90
22765;DHT22;11549;50.852;3.816;2022-10-28T02:09:54;17.90;99.90
22765;DHT22;11549;50.852;3.816;2022-10-28T02:12:29;17.80;99.90
22765;DHT22;11549;50.852;3.816;2022-10-28T02:15:18;17.80;99.90
22765;DHT22;11549;50.852;3.816;2022-10-28T02:18:00;17.80;99.90
22765;DHT22;11549;50.852;3.816;2022-10-28T02:20:35;17.80;99.90
22765;DHT22;11549;50.852;3.816;2022-10-28T02:23:16;17.90;99.90
22765;DHT22;11549;50.852;3.816;2022-10-28T02:25:53;18.00;99.90
22765;DHT22;11549;50.852;3.816;2022-10-28T02:28:28;18.00;99.90
22765;DHT22;11549;50.852;3.816;2022-10-28T02:31:04;17.90;99.90
22765;DHT22;11549;50.852;3.816;2022-10-28T02:33:37;17.90;99.90
22765;DHT22;11549;50.852;3.816;2022-10-28T02:36:11;18.00;99.90
22765;DHT22;11549;50.852;3.816;2022-10-28T02:38:43;17.90;99.90
22765;DHT22;11549;50.852;3.816;2022-10-28T02:41:17;17.90;99.90
22765;DHT22;11549;50.852;3.816;2022-10-28T02:43:55;17.90;99.90
22765;DHT22;11549;50.852;3.816;2022-10-28T02:46:27;17.80;99.90
22765;DHT22;11549;50.852;3.816;2022-10-28T02:49:01;18.00;99.90
22765;DHT22;11549;50.852;3.816;2022-10-28T02:51:34;18.00;99.90
22765;DHT22;11549;50.852;3.816;2022-10-28T02:54:06;17.90;99.90
22765;DHT22;11549;50.852;3.816;2022-10-28T02:56:37;17.90;99.90
22765;DHT22;11549;50.852;3.816;2022-10-28T02:59:08;17.90;99.90
22765;DHT22;11549;50.852;3.816;2022-10-28T03:01:38;17.90;99.90
22765;DHT22;11549;50.852;3.816;2022-10-28T03:04:08;17.90;99.90
22765;DHT22;11549;50.852;3.816;2022-10-28T03:06:36;17.80;99.90
22765;DHT22;11549;50.852;3.816;2022-10-28T03:09:05;17.80;99.90
22765;DHT22;11549;50.852;3.816;2022-10-28T03:11:33;17.80;99.90
22765;DHT22;11549;50.852;3.816;2022-10-28T03:14:02;17.80;99.90
22765;DHT22;11549;50.852;3.816;2022-10-28T03:16:30;17.70;99.90
22765;DHT22;11549;50.852;3.816;2022-10-28T03:18:58;17.80;99.90
22765;DHT22;11549;50.852;3.816;2022-10-28T03:21:28;17.80;99.90
22765;DHT22;11549;50.852;3.816;2022-10-28T03:23:57;17.70;99.90
22765;DHT22;11549;50.852;3.816;2022-10-28T03:26:25;17.70;99.90
22765;DHT22;11549;50.852;3.816;2022-10-28T03:28:53;17.60;99.90
22765;DHT22;11549;50.852;3.816;2022-10-28T03:31:22;17.60;99.90
22765;DHT22;11549;50.852;3.816;2022-10-28T03:33:50;17.70;99.90
22765;DHT22;11549;50.852;3.816;2022-10-28T03:36:18;17.70;99.90
22765;DHT22;11549;50.852;3.816;2022-10-28T03:38:48;17.70;99.90
22765;DHT22;11549;50.852;3.816;2022-10-28T03:41:16;17.80;99.90
22765;DHT22;11549;50.852;3.816;2022-10-28T03:43:44;17.60;99.90
22765;DHT22;11549;50.852;3.816;2022-10-28T03:46:13;17.60;99.90
22765;DHT22;11549;50.852;3.816;2022-10-28T03:48:41;17.50;99.90
22765;DHT22;11549;50.852;3.816;2022-10-28T03:51:09;17.40;99.90
22765;DHT22;11549;50.852;3.816;2022-10-28T03:53:37;17.60;99.90
22765;DHT22;11549;50.852;3.816;2022-10-28T03:56:07;17.60;99.90
22765;DHT22;11549;50.852;3.816;2022-10-28T03:58:35;17.70;99.90
22765;DHT22;11549;50.852;3.816;2022-10-28T04:01:07;17.50;99.90
22765;DHT22;11549;50.852;3.816;2022-10-28T04:03:36;17.40;99.90
22765;DHT22;11549;50.852;3.816;2022-10-28T04:06:04;17.40;99.90
22765;DHT22;11549;50.852;3.816;2022-10-28T04:08:32;17.40;99.90
22765;DHT22;11549;50.852;3.816;2022-10-28T04:11:01;17.40;99.90
22765;DHT22;11549;50.852;3.816;2022-10-28T04:13:30;17.40;99.90
22765;DHT22;11549;50.852;3.816;2022-10-28T04:15:59;17.40;99.90
22765;DHT22;11549;50.852;3.816;2022-10-28T04:18:28;17.40;99.90
22765;DHT22;11549;50.852;3.816;2022-10-28T04:20:56;17.40;99.90
22765;DHT22;11549;50.852;3.816;2022-10-28T04:23:24;17.40;99.90
22765;DHT22;11549;50.852;3.816;2022-10-28T04:25:53;17.40;99.90
22765;DHT22;11549;50.852;3.816;2022-10-28T04:28:21;17.50;99.90
22765;DHT22;11549;50.852;3.816;2022-10-28T04:30:52;17.50;99.90
22765;DHT22;11549;50.852;3.816;2022-10-28T04:33:20;17.50;99.90
22765;DHT22;11549;50.852;3.816;2022-10-28T04:35:48;17.40;99.90
22765;DHT22;11549;50.852;3.816;2022-10-28T04:38:17;17.40;99.90
22765;DHT22;11549;50.852;3.816;2022-10-28T04:40:46;17.40;99.90
22765;DHT22;11549;50.852;3.816;2022-10-28T04:43:15;17.40;99.90
22765;DHT22;11549;50.852;3.816;2022-10-28T04:45:44;17.30;99.90
22765;DHT22;11549;50.852;3.816;2022-10-28T04:48:14;17.40;99.90
22765;DHT22;11549;50.852;3.816;2022-10-28T04:50:42;17.40;99.90
22765;DHT22;11549;50.852;3.816;2022-10-28T04:53:11;17.50;99.90
22765;DHT22;11549;50.852;3.816;2022-10-28T04:55:39;17.60;99.90
22765;DHT22;11549;50.852;3.816;2022-10-28T04:58:08;17.30;99.90
22765;DHT22;11549;50.852;3.816;2022-10-28T05:00:37;17.30;99.90
22765;DHT22;11549;50.852;3.816;2022-10-28T05:03:05;17.40;99.90
22765;DHT22;11549;50.852;3.816;2022-10-28T05:05:34;17.30;99.90
22765;DHT22;11549;50.852;3.816;2022-10-28T05:08:03;17.20;99.90
22765;DHT22;11549;50.852;3.816;2022-10-28T05:10:31;17.20;99.90
22765;DHT22;11549;50.852;3.816;2022-10-28T05:12:59;17.20;99.90
22765;DHT22;11549;50.852;3.816;2022-10-28T05:15:28;17.10;99.90
22765;DHT22;11549;50.852;3.816;2022-10-28T05:17:57;17.00;99.90
22765;DHT22;11549;50.852;3.816;2022-10-28T05:20:25;16.90;99.90
22765;DHT22;11549;50.852;3.816;2022-10-28T05:22:55;16.90;99.90
22765;DHT22;11549;50.852;3.816;2022-10-28T05:25:24;16.80;99.90
22765;DHT22;11549;50.852;3.816;2022-10-28T05:27:52;16.70;99.90
22765;DHT22;11549;50.852;3.816;2022-10-28T05:30:20;16.70;99.90
22765;DHT22;11549;50.852;3.816;2022-10-28T05:32:48;16.70;99.90
22765;DHT22;11549;50.852;3.816;2022-10-28T05:35:21;16.80;99.90
22765;DHT22;11549;50.852;3.816;2022-10-28T05:37:49;16.80;99.90
22765;DHT22;11549;50.852;3.816;2022-10-28T05:40:19;16.80;99.90
22765;DHT22;11549;50.852;3.816;2022-10-28T05:42:47;16.70;99.90
22765;DHT22;11549;50.852;3.816;2022-10-28T05:45:16;16.70;99.90
22765;DHT22;11549;50.852;3.816;2022-10-28T05:47:45;16.60;99.90
22765;DHT22;11549;50.852;3.816;2022-10-28T05:50:16;16.50;99.90
22765;DHT22;11549;50.852;3.816;2022-10-28T05:52:45;16.50;99.90
22765;DHT22;11549;50.852;3.816;2022-10-28T05:55:14;16.50;99.90
22765;DHT22;11549;50.852;3.816;2022-10-28T05:57:47;16.40;99.90
22765;DHT22;11549;50.852;3.816;2022-10-28T06:00:20;16.40;99.90
22765;DHT22;11549;50.852;3.816;2022-10-28T06:02:49;16.40;99.90
22765;DHT22;11549;50.852;3.816;2022-10-28T06:05:18;16.60;99.90
22765;DHT22;11549;50.852;3.816;2022-10-28T06:07:46;16.60;99.90
22765;DHT22;11549;50.852;3.816;2022-10-28T06:10:15;16.60;99.90
22765;DHT22;11549;50.852;3.816;2022-10-28T06:12:43;16.60;99.90
22765;DHT22;11549;50.852;3.816;2022-10-28T06:15:13;16.60;99.90
22765;DHT22;11549;50.852;3.816;2022-10-28T06:17:41;16.70;99.90
22765;DHT22;11549;50.852;3.816;2022-10-28T06:20:10;16.80;99.90
22765;DHT22;11549;50.852;3.816;2022-10-28T06:22:46;16.70;99.90
22765;DHT22;11549;50.852;3.816;2022-10-28T06:25:15;16.70;99.90
22765;DHT22;11549;50.852;3.816;2022-10-28T06:27:43;16.60;99.90
22765;DHT22;11549;50.852;3.816;2022-10-28T06:30:13;16.70;99.90
22765;DHT22;11549;50.852;3.816;2022-10-28T06:32:42;16.70;99.90
22765;DHT22;11549;50.852;3.816;2022-10-28T06:35:10;16.70;99.90
22765;DHT22;11549;50.852;3.816;2022-10-28T06:37:38;16.80;99.90
22765;DHT22;11549;50.852;3.816;2022-10-28T06:40:08;16.80;99.90
22765;DHT22;11549;50.852;3.816;2022-10-28T06:42:36;16.70;99.90
22765;DHT22;11549;50.852;3.816;2022-10-28T06:45:06;16.70;99.90
22765;DHT22;11549;50.852;3.816;2022-10-28T06:47:35;16.80;99.90
22765;DHT22;11549;50.852;3.816;2022-10-28T06:50:08;16.70;99.90
22765;DHT22;11549;50.852;3.816;2022-10-28T06:52:36;16.60;99.90
22765;DHT22;11549;50.852;3.816;2022-10-28T06:55:05;16.70;99.90
22765;DHT22;11549;50.852;3.816;2022-10-28T06:57:34;16.70;99.90
22765;DHT22;11549;50.852;3.816;2022-10-28T07:00:03;16.70;99.90
22765;DHT22;11549;50.852;3.816;2022-10-28T07:02:31;16.70;99.90
22765;DHT22;11549;50.852;3.816;2022-10-28T07:05:01;16.80;99.90
22765;DHT22;11549;50.852;3.816;2022-10-28T07:07:30;16.80;99.90
22765;DHT22;11549;50.852;3.816;2022-10-28T07:09:58;16.80;99.90
22765;DHT22;11549;50.852;3.816;2022-10-28T07:12:26;16.80;99.90
22765;DHT22;11549;50.852;3.816;2022-10-28T07:14:55;16.80;99.90
22765;DHT22;11549;50.852;3.816;2022-10-28T07:17:23;16.80;99.90
22765;DHT22;11549;50.852;3.816;2022-10-28T07:19:51;16.90;99.90
22765;DHT22;11549;50.852;3.816;2022-10-28T07:22:21;17.00;99.90
22765;DHT22;11549;50.852;3.816;2022-10-28T07:24:51;17.10;99.90
22765;DHT22;11549;50.852;3.816;2022-10-28T07:27:20;17.30;99.90
22765;DHT22;11549;50.852;3.816;2022-10-28T07:29:48;17.40;99.90
22765;DHT22;11549;50.852;3.816;2022-10-28T07:32:16;17.40;99.90
22765;DHT22;11549;50.852;3.816;2022-10-28T07:34:45;17.40;99.90
22765;DHT22;11549;50.852;3.816;2022-10-28T07:37:13;17.40;99.90
22765;DHT22;11549;50.852;3.816;2022-10-28T07:39:42;17.30;99.90
22765;DHT22;11549;50.852;3.816;2022-10-28T07:42:11;17.30;99.90
22765;DHT22;11549;50.852;3.816;2022-10-28T07:44:39;17.40;99.90
22765;DHT22;11549;50.852;3.816;2022-10-28T07:47:07;17.50;99.90
22765;DHT22;11549;50.852;3.816;2022-10-28T07:49:36;17.50;99.90
22765;DHT22;11549;50.852;3.816;2022-10-28T07:52:04;17.60;99.90
22765;DHT22;11549;50.852;3.816;2022-10-28T07:54:32;17.60;99.90
22765;DHT22;11549;50.852;3.816;2022-10-28T07:57:02;17.50;99.90
22765;DHT22;11549;50.852;3.816;2022-10-28T07:59:30;17.60;99.90
22765;DHT22;11549;50.852;3.816;2022-10-28T08:01:58;17.60;99.90
22765;DHT22;11549;50.852;3.816;2022-10-28T08:04:28;17.50;99.90
22765;DHT22;11549;50.852;3.816;2022-10-28T08:06:57;17.40;99.90
22765;DHT22;11549;50.852;3.816;2022-10-28T08:09:25;17.50;99.90
22765;DHT22;11549;50.852;3.816;2022-10-28T08:11:55;17.70;99.90
22765;DHT22;11549;50.852;3.816;2022-10-28T08:14:25;17.90;99.90
22765;DHT22;11549;50.852;3.816;2022-10-28T08:16:54;17.90;99.90
22765;DHT22;11549;50.852;3.816;2022-10-28T08:19:22;17.90;99.90
22765;DHT22;11549;50.852;3.816;2022-10-28T08:21:50;17.90;99.90
22765;DHT22;11549;50.852;3.816;2022-10-28T08:24:19;17.90;99.90
22765;DHT22;11549;50.852;3.816;2022-10-28T08:26:47;17.80;99.90
22765;DHT22;11549;50.852;3.816;2022-10-28T08:29:15;17.80;99.90
22765;DHT22;11549;50.852;3.816;2022-10-28T08:31:45;18.10;99.90
22765;DHT22;11549;50.852;3.816;2022-10-28T08:34:14;18.60;99.90
22765;DHT22;11549;50.852;3.816;2022-10-28T08:36:42;18.90;99.90
22765;DHT22;11549;50.852;3.816;2022-10-28T08:39:10;19.20;99.90
22765;DHT22;11549;50.852;3.816;2022-10-28T08:41:41;19.50;99.90
22765;DHT22;11549;50.852;3.816;2022-10-28T08:44:26;19.80;99.90
22765;DHT22;11549;50.852;3.816;2022-10-28T08:47:08;20.30;99.90
22765;DHT22;11549;50.852;3.816;2022-10-28T08:49:41;20.60;99.90
22765;DHT22;11549;50.852;3.816;2022-10-28T08:52:23;20.90;99.90
22765;DHT22;11549;50.852;3.816;2022-10-28T08:54:56;21.20;99.90
22765;DHT22;11549;50.852;3.816;2022-10-28T08:57:31;21.30;99.90
22765;DHT22;11549;50.852;3.816;2022-10-28T09:00:04;21.50;99.90
22765;DHT22;11549;50.852;3.816;2022-10-28T09:02:46;21.60;99.90
22765;DHT22;11549;50.852;3.816;2022-10-28T09:05:20;21.90;99.90
22765;DHT22;11549;50.852;3.816;2022-10-28T09:07:49;22.10;99.90
22765;DHT22;11549;50.852;3.816;2022-10-28T09:10:40;22.30;99.90
22765;DHT22;11549;50.852;3.816;2022-10-28T09:13:18;22.40;99.90
22765;DHT22;11549;50.852;3.816;2022-10-28T09:15:55;22.50;99.90
22765;DHT22;11549;50.852;3.816;2022-10-28T09:18:41;22.70;99.90
22765;DHT22;11549;50.852;3.816;2022-10-28T09:21:17;22.90;99.90
22765;DHT22;11549;50.852;3.816;2022-10-28T09:23:51;22.90;99.90
22765;DHT22;11549;50.852;3.816;2022-10-28T09:26:30;22.80;99.90
22765;DHT22;11549;50.852;3.816;2022-10-28T09:29:09;22.90;99.90
22765;DHT22;11549;50.852;3.816;2022-10-28T09:31:41;23.00;99.90
22765;DHT22;11549;50.852;3.816;2022-10-28T09:34:25;23.20;99.90
22765;DHT22;11549;50.852;3.816;2022-10-28T09:37:00;23.20;99.90
22765;DHT22;11549;50.852;3.816;2022-10-28T09:39:36;23.30;99.90
22765;DHT22;11549;50.852;3.816;2022-10-28T09:42:11;23.30;99.90
22765;DHT22;11549;50.852;3.816;2022-10-28T09:44:42;23.40;99.90
22765;DHT22;11549;50.852;3.816;2022-10-28T09:47:14;23.50;99.90
22765;DHT22;11549;50.852;3.816;2022-10-28T09:49:47;23.60;99.90
22765;DHT22;11549;50.852;3.816;2022-10-28T09:52:21;23.50;99.90
22765;DHT22;11549;50.852;3.816;2022-10-28T09:54:51;23.40;99.90
22765;DHT22;11549;50.852;3.816;2022-10-28T09:57:29;23.30;99.90
22765;DHT22;11549;50.852;3.816;2022-10-28T09:59:58;23.10;99.90
22765;DHT22;11549;50.852;3.816;2022-10-28T10:02:29;23.10;99.90
22765;DHT22;11549;50.852;3.816;2022-10-28T10:05:01;23.10;99.90
22765;DHT22;11549;50.852;3.816;2022-10-28T10:07:33;22.90;99.90
22765;DHT22;11549;50.852;3.816;2022-10-28T10:10:06;22.80;99.90
22765;DHT22;11549;50.852;3.816;2022-10-28T10:12:40;22.80;99.90
22765;DHT22;11549;50.852;3.816;2022-10-28T10:15:14;22.80;99.90
22765;DHT22;11549;50.852;3.816;2022-10-28T10:17:46;22.90;99.90
22765;DHT22;11549;50.852;3.816;2022-10-28T10:20:17;22.90;99.90
22765;DHT22;11549;50.852;3.816;2022-10-28T10:22:47;22.90;99.90
22765;DHT22;11549;50.852;3.816;2022-10-28T10:25:25;23.00;99.90
22765;DHT22;11549;50.852;3.816;2022-10-28T10:27:58;23.10;99.90
22765;DHT22;11549;50.852;3.816;2022-10-28T10:30:30;23.40;99.90
22765;DHT22;11549;50.852;3.816;2022-10-28T10:33:00;23.60;99.90
22765;DHT22;11549;50.852;3.816;2022-10-28T10:35:31;23.70;99.90
22765;DHT22;11549;50.852;3.816;2022-10-28T10:38:03;23.80;99.90
22765;DHT22;11549;50.852;3.816;2022-10-28T10:40:34;23.80;99.90
22765;DHT22;11549;50.852;3.816;2022-10-28T10:43:19;23.70;99.90
22765;DHT22;11549;50.852;3.816;2022-10-28T10:45:51;23.70;99.90
22765;DHT22;11549;50.852;3.816;2022-10-28T10:48:20;23.80;99.90
22765;DHT22;11549;50.852;3.816;2022-10-28T10:50:50;23.70;99.90
22765;DHT22;11549;50.852;3.816;2022-10-28T10:53:22;23.70;99.90
22765;DHT22;11549;50.852;3.816;2022-10-28T10:55:56;23.90;99.90
22765;DHT22;11549;50.852;3.816;2022-10-28T10:58:32;24.20;99.90
22765;DHT22;11549;50.852;3.816;2022-10-28T11:01:04;24.30;99.90
22765;DHT22;11549;50.852;3.816;2022-10-28T11:03:35;24.40;99.90
22765;DHT22;11549;50.852;3.816;2022-10-28T11:06:07;24.60;99.90
22765;DHT22;11549;50.852;3.816;2022-10-28T11:08:54;24.60;99.90
22765;DHT22;11549;50.852;3.816;2022-10-28T11:11:31;24.60;99.90
22765;DHT22;11549;50.852;3.816;2022-10-28T11:14:05;24.40;99.90
22765;DHT22;11549;50.852;3.816;2022-10-28T11:16:47;24.60;99.90
22765;DHT22;11549;50.852;3.816;2022-10-28T11:19:20;24.60;99.90
22765;DHT22;11549;50.852;3.816;2022-10-28T11:22:11;24.70;99.90
22765;DHT22;11549;50.852;3.816;2022-10-28T11:24:59;24.80;99.90
22765;DHT22;11549;50.852;3.816;2022-10-28T11:27:42;24.70;99.90
22765;DHT22;11549;50.852;3.816;2022-10-28T11:30:26;24.80;99.90
22765;DHT22;11549;50.852;3.816;2022-10-28T11:33:04;24.60;99.90
22765;DHT22;11549;50.852;3.816;2022-10-28T11:36:01;24.60;99.90
22765;DHT22;11549;50.852;3.816;2022-10-28T11:38:49;24.50;99.90
22765;DHT22;11549;50.852;3.816;2022-10-28T11:41:30;24.50;99.90
22765;DHT22;11549;50.852;3.816;2022-10-28T11:44:10;24.40;99.90
22765;DHT22;11549;50.852;3.816;2022-10-28T11:46:48;24.30;99.90
22765;DHT22;11549;50.852;3.816;2022-10-28T11:49:39;24.30;99.90
22765;DHT22;11549;50.852;3.816;2022-10-28T11:52:23;24.10;99.90
22765;DHT22;11549;50.852;3.816;2022-10-28T11:55:06;24.20;99.90
22765;DHT22;11549;50.852;3.816;2022-10-28T11:57:47;24.30;99.90
22765;DHT22;11549;50.852;3.816;2022-10-28T12:00:34;24.30;99.90
22765;DHT22;11549;50.852;3.816;2022-10-28T12:03:18;24.30;99.90
22765;DHT22;11549;50.852;3.816;2022-10-28T12:06:01;24.20;99.90
22765;DHT22;11549;50.852;3.816;2022-10-28T12:08:41;24.30;99.90
22765;DHT22;11549;50.852;3.816;2022-10-28T12:11:21;24.40;99.90
22765;DHT22;11549;50.852;3.816;2022-10-28T12:13:57;24.40;99.90
22765;DHT22;11549;50.852;3.816;2022-10-28T12:16:33;24.50;99.90
22765;DHT22;11549;50.852;3.816;2022-10-28T12:19:07;24.40;99.90
22765;DHT22;11549;50.852;3.816;2022-10-28T12:21:40;24.40;99.90
22765;DHT22;11549;50.852;3.816;2022-10-28T12:24:13;24.40;99.90
22765;DHT22;11549;50.852;3.816;2022-10-28T12:26:46;24.50;99.90
22765;DHT22;11549;50.852;3.816;2022-10-28T12:29:19;24.80;99.90
22765;DHT22;11549;50.852;3.816;2022-10-28T12:31:52;24.90;99.90
22765;DHT22;11549;50.852;3.816;2022-10-28T12:34:28;25.10;99.90
22765;DHT22;11549;50.852;3.816;2022-10-28T12:37:01;25.20;99.90
22765;DHT22;11549;50.852;3.816;2022-10-28T12:39:33;25.20;99.90
22765;DHT22;11549;50.852;3.816;2022-10-28T12:42:11;25.30;99.90
22765;DHT22;11549;50.852;3.816;2022-10-28T12:44:42;25.40;99.90
22765;DHT22;11549;50.852;3.816;2022-10-28T12:47:23;25.60;99.90
22765;DHT22;11549;50.852;3.816;2022-10-28T12:50:01;25.60;99.90
22765;DHT22;11549;50.852;3.816;2022-10-28T12:52:46;25.80;99.90
22765;DHT22;11549;50.852;3.816;2022-10-28T12:55:26;25.70;99.90
22765;DHT22;11549;50.852;3.816;2022-10-28T12:58:03;25.70;99.90
22765;DHT22;11549;50.852;3.816;2022-10-28T13:00:34;25.40;99.90
22765;DHT22;11549;50.852;3.816;2022-10-28T13:03:05;25.50;99.90
22765;DHT22;11549;50.852;3.816;2022-10-28T13:05:38;25.30;99.90
22765;DHT22;11549;50.852;3.816;2022-10-28T13:14:31;25.20;99.90
22765;DHT22;11549;50.852;3.816;2022-10-28T13:17:17;25.00;99.90
22765;DHT22;11549;50.852;3.816;2022-10-28T13:20:02;24.80;99.90
22765;DHT22;11549;50.852;3.816;2022-10-28T13:23:07;24.60;99.90
22765;DHT22;11549;50.852;3.816;2022-10-28T13:26:14;24.60;99.90
22765;DHT22;11549;50.852;3.816;2022-10-28T13:28:46;24.60;99.90
22765;DHT22;11549;50.852;3.816;2022-10-28T13:31:16;24.60;99.90
22765;DHT22;11549;50.852;3.816;2022-10-28T13:33:50;24.70;99.90
22765;DHT22;11549;50.852;3.816;2022-10-28T13:36:24;24.70;99.90
22765;DHT22;11549;50.852;3.816;2022-10-28T13:38:54;24.60;99.90
22765;DHT22;11549;50.852;3.816;2022-10-28T13:41:36;24.30;99.90
22765;DHT22;11549;50.852;3.816;2022-10-28T13:44:13;24.10;99.90
22765;DHT22;11549;50.852;3.816;2022-10-28T13:50:20;23.90;99.90
22765;DHT22;11549;50.852;3.816;2022-10-28T13:56:29;23.60;99.90
22765;DHT22;11549;50.852;3.816;2022-10-28T13:59:01;23.50;99.90
22765;DHT22;11549;50.852;3.816;2022-10-28T14:01:52;23.50;99.90
22765;DHT22;11549;50.852;3.816;2022-10-28T14:04:40;23.50;99.90
22765;DHT22;11549;50.852;3.816;2022-10-28T14:07:25;23.50;99.90
22765;DHT22;11549;50.852;3.816;2022-10-28T14:10:10;23.60;99.90
22765;DHT22;11549;50.852;3.816;2022-10-28T14:12:48;23.70;99.90
22765;DHT22;11549;50.852;3.816;2022-10-28T14:15:23;23.60;99.90
22765;DHT22;11549;50.852;3.816;2022-10-28T14:17:54;23.60;99.90
22765;DHT22;11549;50.852;3.816;2022-10-28T14:20:54;23.50;99.90
22765;DHT22;11549;50.852;3.816;2022-10-28T14:30:20;23.30;99.90
22765;DHT22;11549;50.852;3.816;2022-10-28T14:33:18;23.20;99.90
22765;DHT22;11549;50.852;3.816;2022-10-28T14:35:51;23.30;99.90
22765;DHT22;11549;50.852;3.816;2022-10-28T14:38:54;23.30;99.90
22765;DHT22;11549;50.852;3.816;2022-10-28T14:44:34;23.20;99.90
22765;DHT22;11549;50.852;3.816;2022-10-28T14:47:25;23.20;99.90
22765;DHT22;11549;50.852;3.816;2022-10-28T14:49:59;23.20;99.90
22765;DHT22;11549;50.852;3.816;2022-10-28T14:52:30;23.10;99.90
22765;DHT22;11549;50.852;3.816;2022-10-28T14:55:05;23.00;99.90
22765;DHT22;11549;50.852;3.816;2022-10-28T14:57:34;22.80;99.90
22765;DHT22;11549;50.852;3.816;2022-10-28T15:00:04;22.60;99.90
22765;DHT22;11549;50.852;3.816;2022-10-28T15:02:34;22.50;99.90
22765;DHT22;11549;50.852;3.816;2022-10-28T15:05:14;22.50;99.90
22765;DHT22;11549;50.852;3.816;2022-10-28T15:07:43;22.30;99.90
22765;DHT22;11549;50.852;3.816;2022-10-28T15:10:16;22.30;99.90
22765;DHT22;11549;50.852;3.816;2022-10-28T15:12:46;22.30;99.90
22765;DHT22;11549;50.852;3.816;2022-10-28T15:15:18;22.20;99.90
22765;DHT22;11549;50.852;3.816;2022-10-28T15:17:47;22.10;99.90
22765;DHT22;11549;50.852;3.816;2022-10-28T15:20:23;22.10;99.90
22765;DHT22;11549;50.852;3.816;2022-10-28T15:22:52;22.20;99.90
22765;DHT22;11549;50.852;3.816;2022-10-28T15:25:22;22.10;99.90
22765;DHT22;11549;50.852;3.816;2022-10-28T15:27:52;22.10;99.90
22765;DHT22;11549;50.852;3.816;2022-10-28T15:30:22;22.00;99.90
22765;DHT22;11549;50.852;3.816;2022-10-28T15:32:51;22.10;99.90
22765;DHT22;11549;50.852;3.816;2022-10-28T15:35:37;21.90;99.90
22765;DHT22;11549;50.852;3.816;2022-10-28T15:38:31;21.90;99.90
22765;DHT22;11549;50.852;3.816;2022-10-28T15:44:29;21.80;99.90
22765;DHT22;11549;50.852;3.816;2022-10-28T15:46:59;21.80;99.90
22765;DHT22;11549;50.852;3.816;2022-10-28T15:49:35;21.70;99.90
22765;DHT22;11549;50.852;3.816;2022-10-28T15:52:20;21.70;99.90
22765;DHT22;11549;50.852;3.816;2022-10-28T15:54:56;21.70;99.90
22765;DHT22;11549;50.852;3.816;2022-10-28T15:57:28;21.60;99.90
22765;DHT22;11549;50.852;3.816;2022-10-28T16:00:19;21.60;99.90
22765;DHT22;11549;50.852;3.816;2022-10-28T16:02:53;21.60;99.90
22765;DHT22;11549;50.852;3.816;2022-10-28T16:05:49;21.50;99.90
22765;DHT22;11549;50.852;3.816;2022-10-28T16:08:21;21.50;99.90
22765;DHT22;11549;50.852;3.816;2022-10-28T16:10:54;21.50;99.90
22765;DHT22;11549;50.852;3.816;2022-10-28T16:13:28;21.40;99.90
22765;DHT22;11549;50.852;3.816;2022-10-28T16:15:59;21.40;99.90
22765;DHT22;11549;50.852;3.816;2022-10-28T16:18:29;21.40;99.90
22765;DHT22;11549;50.852;3.816;2022-10-28T16:20:59;21.40;99.90
22765;DHT22;11549;50.852;3.816;2022-10-28T16:23:33;21.30;99.90
22765;DHT22;11549;50.852;3.816;2022-10-28T16:26:02;21.20;99.90
22765;DHT22;11549;50.852;3.816;2022-10-28T16:28:31;21.10;99.90
22765;DHT22;11549;50.852;3.816;2022-10-28T16:31:01;21.00;99.90
22765;DHT22;11549;50.852;3.816;2022-10-28T16:33:32;21.00;99.90
22765;DHT22;11549;50.852;3.816;2022-10-28T16:36:00;20.90;99.90
22765;DHT22;11549;50.852;3.816;2022-10-28T16:38:30;20.90;99.90